createdAt,value
2018-05-27T10:26:53.927Z,29.47
2018-05-27T10:27:53.824Z,29.59
2018-05-27T10:29:48.303Z,29.65
2018-05-27T10:30:47.841Z,29.68
2018-05-27T10:32:41.250Z,29.87
2018-05-27T10:33:41.224Z,29.87
2018-05-27T10:35:34.152Z,29.86
2018-05-27T10:36:34.218Z,29.98
2018-05-27T10:38:27.558Z,29.83
2018-05-27T10:39:27.349Z,29.80
2018-05-27T10:41:20.554Z,29.63
2018-05-27T10:42:20.300Z,29.61
2018-05-27T10:44:14.579Z,29.47
2018-05-27T10:45:13.725Z,29.43
2018-05-27T10:47:07.552Z,29.34
2018-05-27T10:48:06.631Z,29.37
2018-05-27T10:50:01.394Z,29.31
2018-05-27T10:50:59.567Z,29.24
2018-05-27T10:52:53.250Z,29.15
2018-05-27T10:53:53.158Z,29.07
2018-05-27T10:55:48.990Z,29.02
2018-05-27T10:56:47.147Z,28.90
2018-05-27T10:58:39.999Z,28.89
2018-05-27T10:59:39.495Z,28.75
2018-05-27T11:01:33.450Z,28.46
2018-05-27T11:02:32.880Z,28.52
2018-05-27T11:04:26.603Z,28.30
2018-05-27T11:05:26.295Z,28.30
2018-05-27T11:07:19.608Z,28.13
2018-05-27T11:08:19.473Z,27.98
2018-05-27T11:10:13.220Z,27.85
2018-05-27T11:11:12.573Z,27.80
2018-05-27T11:13:05.981Z,27.79
2018-05-27T11:14:05.997Z,27.57
2018-05-27T11:15:59.999Z,27.58
2018-05-27T11:16:59.365Z,27.52
2018-05-27T11:18:52.589Z,27.31
2018-05-27T11:19:52.273Z,27.32
2018-05-27T11:21:45.512Z,27.25
2018-05-27T11:22:45.178Z,27.23
2018-05-27T11:24:38.927Z,27.10
2018-05-27T11:25:38.549Z,27.01
2018-05-27T11:27:31.760Z,26.95
2018-05-27T11:28:31.639Z,26.97
2018-05-27T11:30:25.249Z,26.86
2018-05-27T11:31:24.853Z,26.88
2018-05-27T11:33:18.363Z,26.76
2018-05-27T11:34:20.335Z,26.75
2018-05-27T11:36:11.275Z,26.67
2018-05-27T11:37:11.293Z,26.60
2018-05-27T11:39:04.701Z,26.39
2018-05-27T11:40:04.665Z,26.34
2018-05-27T11:41:58.816Z,26.26
2018-05-27T11:42:59.044Z,26.23
2018-05-27T11:44:52.479Z,26.04
2018-05-27T11:45:52.463Z,25.95
2018-05-27T11:47:45.861Z,25.78
2018-05-27T11:48:45.832Z,25.74
2018-05-27T11:50:39.323Z,25.55
2018-05-27T11:51:39.229Z,25.58
2018-05-27T11:53:32.583Z,25.55
2018-05-27T11:54:32.583Z,25.48
2018-05-27T11:56:25.971Z,25.41
2018-05-27T11:57:27.315Z,25.34
2018-05-27T11:59:19.459Z,25.22
2018-05-27T12:00:19.349Z,25.16
2018-05-27T12:02:13.817Z,25.04
2018-05-27T12:03:13.471Z,25.04
2018-05-27T12:05:07.205Z,24.90
2018-05-27T12:06:07.447Z,24.94
2018-05-27T12:08:01.561Z,24.93
2018-05-27T12:09:01.668Z,24.99
2018-05-27T12:10:54.925Z,24.94
2018-05-27T12:11:54.632Z,24.89
2018-05-27T12:13:50.910Z,24.85
2018-05-27T12:14:48.812Z,24.76
2018-05-27T12:16:41.716Z,24.63
2018-05-27T12:17:41.370Z,24.55
2018-05-27T12:19:35.363Z,24.37
2018-05-27T12:20:35.064Z,24.44
2018-05-27T12:22:28.194Z,24.31
2018-05-27T12:23:28.488Z,24.31
2018-05-27T12:25:21.896Z,24.10
2018-05-27T12:26:21.843Z,24.01
2018-05-27T12:28:15.338Z,23.94
2018-05-27T12:29:15.263Z,23.98
2018-05-27T12:31:10.264Z,23.88
2018-05-27T12:32:09.704Z,23.86
2018-05-27T12:34:03.066Z,23.86
2018-05-27T12:35:02.553Z,23.88
2018-05-27T12:36:56.534Z,23.79
2018-05-27T12:37:55.953Z,23.94
2018-05-27T12:39:49.293Z,23.91
2018-05-27T12:40:49.174Z,24.00
2018-05-27T12:42:42.237Z,24.11
2018-05-27T12:43:42.170Z,24.15
2018-05-27T12:45:35.660Z,24.28
2018-05-27T12:46:35.659Z,24.48
2018-05-27T12:48:29.882Z,24.58
2018-05-27T12:49:28.987Z,24.71
2018-05-27T12:51:23.421Z,24.99
2018-05-27T12:52:22.755Z,25.04
2018-05-27T12:54:16.250Z,25.30
2018-05-27T12:55:16.168Z,25.33
2018-05-27T12:57:12.118Z,25.61
2018-05-27T12:58:13.161Z,25.71
2018-05-27T13:00:05.544Z,26.05
2018-05-27T13:01:07.878Z,26.12
2018-05-27T13:02:58.859Z,26.34
2018-05-27T13:03:58.531Z,26.34
2018-05-27T13:05:52.280Z,26.56
2018-05-27T13:06:52.316Z,26.63
2018-05-27T13:08:46.166Z,26.97
2018-05-27T13:09:45.395Z,27.12
2018-05-27T13:11:39.040Z,27.32
2018-05-27T13:12:38.077Z,27.37
2018-05-27T13:14:31.544Z,27.34
2018-05-27T13:15:31.541Z,27.52
2018-05-27T13:17:31.108Z,27.50
2018-05-27T13:18:25.956Z,27.44
2018-05-27T13:20:26.226Z,27.45
2018-05-27T13:21:20.206Z,27.66
2018-05-27T13:23:13.679Z,27.61
2018-05-27T13:24:13.314Z,27.57
2018-05-27T13:26:07.081Z,27.52
2018-05-27T13:27:07.075Z,27.47
2018-05-27T13:29:00.095Z,27.45
2018-05-27T13:30:00.483Z,27.42
2018-05-27T13:31:53.701Z,27.31
2018-05-27T13:32:53.444Z,27.31
2018-05-27T13:34:47.134Z,27.34
2018-05-27T13:35:46.836Z,27.34
2018-05-27T13:37:40.621Z,27.31
2018-05-27T13:38:40.491Z,27.30
2018-05-27T13:40:33.522Z,27.19
2018-05-27T13:41:33.827Z,27.08
2018-05-27T13:43:26.023Z,27.16
2018-05-27T13:44:26.293Z,27.23
2018-05-27T13:46:19.790Z,27.15
2018-05-27T13:47:19.258Z,27.17
2018-05-27T13:49:11.834Z,27.17
2018-05-27T13:50:11.806Z,27.16
2018-05-27T13:52:05.503Z,27.08
2018-05-27T13:53:05.187Z,27.10
2018-05-27T13:54:59.890Z,27.04
2018-05-27T13:55:58.075Z,27.17
2018-05-27T13:57:58.310Z,27.23
2018-05-27T14:00:06.147Z,27.08
2018-05-27T14:01:06.468Z,27.01
2018-05-27T14:02:56.875Z,27.08
2018-05-27T14:03:56.885Z,27.08
2018-05-27T14:05:50.567Z,27.10
2018-05-27T14:06:50.404Z,27.13
2018-05-27T14:08:44.021Z,27.34
2018-05-27T14:09:43.955Z,27.37
2018-05-27T14:11:37.373Z,27.47
2018-05-27T14:12:37.315Z,27.45
2018-05-27T14:14:34.817Z,27.69
2018-05-27T14:15:31.409Z,27.73
2018-05-27T14:17:24.706Z,27.88
2018-05-27T14:18:24.327Z,27.79
2018-05-27T14:20:18.011Z,27.87
2018-05-27T14:21:17.735Z,27.82
2018-05-27T14:23:12.688Z,27.69
2018-05-27T14:24:11.471Z,27.60
2018-05-27T14:26:05.102Z,27.57
2018-05-27T14:27:04.777Z,27.41
2018-05-27T14:28:57.405Z,27.47
2018-05-27T14:29:57.706Z,27.50
2018-05-27T14:31:51.134Z,27.57
2018-05-27T14:32:51.055Z,27.61
2018-05-27T14:34:44.468Z,27.60
2018-05-27T14:35:44.466Z,27.61
2018-05-27T14:37:37.469Z,27.60
2018-05-27T14:38:37.041Z,27.66
2018-05-27T14:40:29.940Z,27.73
2018-05-27T14:41:30.399Z,27.68
2018-05-27T14:43:23.795Z,27.73
2018-05-27T14:44:23.627Z,27.57
2018-05-27T14:46:17.061Z,27.69
2018-05-27T14:47:17.124Z,27.73
2018-05-27T14:49:10.101Z,27.72
2018-05-27T14:50:09.916Z,27.79
2018-05-27T14:52:04.406Z,27.83
2018-05-27T14:53:03.629Z,27.82
2018-05-27T14:54:56.791Z,27.91
2018-05-27T14:55:56.436Z,27.76
2018-05-27T14:57:49.734Z,27.88
2018-05-27T14:58:50.294Z,27.87
2018-05-27T15:00:44.377Z,27.73
2018-05-27T15:01:43.737Z,27.73
2018-05-27T15:03:38.742Z,27.76
2018-05-27T15:04:38.434Z,27.83
2018-05-27T15:06:30.699Z,27.88
2018-05-27T15:07:30.701Z,27.93
2018-05-27T15:09:24.389Z,27.97
2018-05-27T15:10:24.138Z,27.94
2018-05-27T15:12:17.872Z,27.88
2018-05-27T15:13:17.507Z,27.85
2018-05-27T15:15:11.300Z,27.87
2018-05-27T15:16:11.169Z,27.85
2018-05-27T15:18:04.657Z,27.83
2018-05-27T15:19:04.641Z,27.80
2018-05-27T15:20:59.074Z,27.63
2018-05-27T15:21:59.055Z,27.60
2018-05-27T15:23:51.939Z,27.53
2018-05-27T15:24:51.918Z,27.58
2018-05-27T15:26:45.833Z,27.45
2018-05-27T15:27:45.365Z,27.37
2018-05-27T15:29:38.689Z,27.27
2018-05-27T15:30:38.793Z,27.23
2018-05-27T15:32:32.086Z,27.25
2018-05-27T15:33:31.824Z,27.15
2018-05-27T15:35:24.986Z,27.01
2018-05-27T15:36:24.943Z,26.86
2018-05-27T15:38:18.351Z,26.83
2018-05-27T15:39:18.324Z,26.88
2018-05-27T15:41:11.734Z,26.90
2018-05-27T15:42:11.796Z,26.76
2018-05-27T15:44:06.205Z,26.70
2018-05-27T15:45:05.108Z,26.71
2018-05-27T15:46:58.318Z,26.58
2018-05-27T15:47:58.514Z,26.56
2018-05-27T15:49:52.526Z,26.51
2018-05-27T15:50:51.927Z,26.49
2018-05-27T15:52:44.833Z,26.39
2018-05-27T15:53:45.005Z,26.42
2018-05-27T15:55:39.811Z,26.41
2018-05-27T15:56:38.975Z,26.38
2018-05-27T15:58:32.298Z,26.39
2018-05-27T15:59:32.171Z,26.41
2018-05-27T16:01:25.007Z,26.39
2018-05-27T16:02:25.003Z,26.34
2018-05-27T16:04:18.455Z,26.33
2018-05-27T16:05:18.078Z,26.33
2018-05-27T16:07:11.852Z,26.27
2018-05-27T16:08:11.990Z,26.38
2018-05-27T16:10:04.713Z,26.30
2018-05-27T16:11:04.357Z,26.27
2018-05-27T16:12:57.756Z,26.24
2018-05-27T16:13:57.746Z,26.28
2018-05-27T16:15:51.518Z,26.26
2018-05-27T16:16:51.374Z,26.33
2018-05-27T16:18:44.846Z,26.20
2018-05-27T16:19:44.560Z,26.26
2018-05-27T16:21:40.232Z,26.31
2018-05-27T16:22:37.458Z,26.33
2018-05-27T16:24:31.849Z,26.20
2018-05-27T16:25:31.757Z,26.19
2018-05-27T16:27:24.859Z,26.33
2018-05-27T16:28:24.307Z,26.30
2018-05-27T16:30:18.678Z,26.38
2018-05-27T16:31:18.661Z,26.36
2018-05-27T16:33:11.932Z,26.20
2018-05-27T16:34:24.450Z,26.20
2018-05-27T16:41:01.120Z,26.05
2018-05-27T16:41:41.281Z,26.03
2018-05-27T16:43:33.819Z,25.95
2018-05-27T16:44:33.498Z,25.89
2018-05-27T16:46:26.868Z,25.86
2018-05-27T16:47:26.605Z,25.78
2018-05-27T16:49:20.325Z,25.77
2018-05-27T16:50:21.798Z,25.78
2018-05-27T16:52:13.751Z,25.74
2018-05-27T16:53:13.676Z,25.77
2018-05-27T16:55:06.626Z,25.77
2018-05-27T16:56:06.677Z,25.73
2018-05-27T16:58:02.567Z,25.74
2018-05-27T16:58:59.815Z,25.75
2018-05-27T17:00:52.710Z,25.71
2018-05-27T17:01:52.991Z,25.61
2018-05-27T17:03:48.432Z,25.52
2018-05-27T17:04:46.910Z,25.41
2018-05-27T17:06:39.834Z,25.36
2018-05-27T17:07:39.450Z,25.33
2018-05-27T17:09:35.291Z,25.12
2018-05-27T17:10:33.455Z,25.11
2018-05-27T17:12:27.773Z,25.09
2018-05-27T17:13:27.313Z,24.99
2018-05-27T17:15:20.740Z,24.97
2018-05-27T17:16:20.085Z,24.93
2018-05-27T17:18:13.468Z,24.81
2018-05-27T17:19:13.770Z,24.82
2018-05-27T17:21:07.146Z,24.74
2018-05-27T17:22:06.807Z,24.63
2018-05-27T17:24:00.244Z,24.48
2018-05-27T17:25:00.620Z,24.45
2018-05-27T17:26:53.944Z,24.37
2018-05-27T17:27:53.904Z,24.33
2018-05-27T17:29:47.589Z,24.16
2018-05-27T17:30:47.318Z,24.13
2018-05-27T17:32:40.847Z,24.04
2018-05-27T17:33:40.447Z,23.96
2018-05-27T17:35:33.936Z,23.86
2018-05-27T17:36:33.392Z,23.91
2018-05-27T17:38:27.079Z,23.82
2018-05-27T17:39:27.065Z,23.79
2018-05-27T17:41:20.611Z,23.66
2018-05-27T17:42:20.043Z,23.59
2018-05-27T17:44:14.413Z,23.42
2018-05-27T17:45:14.325Z,23.42
2018-05-27T17:47:07.738Z,23.42
2018-05-27T17:48:07.343Z,23.39
2018-05-27T17:50:01.315Z,23.39
2018-05-27T17:51:00.714Z,23.37
2018-05-27T17:52:54.448Z,23.22
2018-05-27T17:53:53.926Z,23.33
2018-05-27T17:55:47.319Z,23.21
2018-05-27T17:56:47.378Z,23.22
2018-05-27T17:58:40.291Z,23.21
2018-05-27T17:59:40.339Z,23.17
2018-05-27T18:01:33.030Z,23.21
2018-05-27T18:02:33.163Z,23.22
2018-05-27T18:04:26.582Z,23.28
2018-05-27T18:05:26.558Z,23.25
2018-05-27T18:07:19.905Z,23.25
2018-05-27T18:08:19.533Z,23.25
2018-05-27T18:10:13.290Z,23.25
2018-05-27T18:11:12.946Z,23.18
2018-05-27T18:13:06.612Z,23.22
2018-05-27T18:14:06.642Z,23.29
2018-05-27T18:16:00.299Z,23.25
2018-05-27T18:16:59.678Z,23.34
2018-05-27T18:18:54.084Z,23.37
2018-05-27T18:19:53.436Z,23.33
2018-05-27T18:21:46.869Z,23.22
2018-05-27T18:22:46.831Z,23.21
2018-05-27T18:24:40.742Z,23.07
2018-05-27T18:25:39.911Z,23.03
2018-05-27T18:27:32.718Z,22.92
2018-05-27T18:28:32.708Z,22.86
2018-05-27T18:30:26.346Z,22.85
2018-05-27T18:31:26.080Z,22.83
2018-05-27T18:33:18.994Z,22.77
2018-05-27T18:34:18.993Z,22.76
2018-05-27T18:36:12.451Z,22.74
2018-05-27T18:37:12.371Z,22.71
2018-05-27T18:39:05.610Z,22.58
2018-05-27T18:40:05.270Z,22.59
2018-05-27T18:41:58.348Z,22.62
2018-05-27T18:42:58.679Z,22.61
2018-05-27T18:44:51.786Z,22.61
2018-05-27T18:45:51.363Z,22.53
2018-05-27T18:47:44.363Z,22.53
2018-05-27T18:48:44.256Z,22.52
2018-05-27T18:50:38.599Z,22.36
2018-05-27T18:51:38.036Z,22.30
2018-05-27T18:53:31.544Z,22.27
2018-05-27T18:54:31.331Z,22.15
2018-05-27T18:56:26.672Z,22.22
2018-05-27T18:57:25.280Z,22.11
2018-05-27T18:59:19.027Z,22.09
2018-05-27T19:00:19.015Z,22.11
2018-05-27T19:02:13.513Z,21.96
2018-05-27T19:03:13.954Z,21.93
2018-05-27T19:05:06.813Z,21.94
2018-05-27T19:06:06.765Z,21.88
2018-05-27T19:07:59.739Z,21.77
2018-05-27T19:08:59.299Z,21.74
2018-05-27T19:10:53.358Z,21.75
2018-05-27T19:11:52.654Z,21.60
2018-05-27T19:13:45.885Z,21.60
2018-05-27T19:14:46.018Z,21.66
2018-05-27T19:16:39.506Z,21.62
2018-05-27T19:17:38.970Z,21.62
2018-05-27T19:19:32.838Z,21.71
2018-05-27T19:20:32.675Z,21.58
2018-05-27T19:22:26.167Z,21.60
2018-05-27T19:23:26.654Z,21.51
2018-05-27T19:25:20.995Z,21.56
2018-05-27T19:26:19.568Z,21.59
2018-05-27T19:28:12.360Z,21.44
2018-05-27T19:29:12.355Z,21.48
2018-05-27T19:31:05.370Z,21.45
2018-05-27T19:32:05.423Z,21.50
2018-05-27T19:33:59.355Z,21.45
2018-05-27T19:34:59.131Z,21.48
2018-05-27T19:36:54.781Z,21.53
2018-05-27T19:37:54.644Z,21.37
2018-05-27T19:39:49.068Z,21.40
2018-05-27T19:40:48.056Z,21.40
2018-05-27T19:42:41.844Z,21.38
2018-05-27T19:43:41.400Z,21.37
2018-05-27T19:45:35.224Z,21.32
2018-05-27T19:46:35.113Z,21.34
2018-05-27T19:48:30.834Z,21.25
2018-05-27T19:49:29.505Z,21.35
2018-05-27T19:51:22.673Z,21.29
2018-05-27T19:52:22.414Z,21.25
2018-05-27T19:54:15.864Z,21.26
2018-05-27T19:55:15.756Z,21.20
2018-05-27T19:57:09.230Z,21.25
2018-05-27T19:58:09.107Z,21.18
2018-05-27T20:00:02.577Z,21.14
2018-05-27T20:01:02.576Z,21.05
2018-05-27T20:02:59.325Z,21.08
2018-05-27T20:03:58.632Z,21.01
2018-05-27T20:05:51.434Z,21.14
2018-05-27T20:06:52.845Z,21.01
2018-05-27T20:08:44.956Z,21.01
2018-05-27T20:09:44.703Z,21.05
2018-05-27T20:11:38.230Z,21.08
2018-05-27T20:12:38.114Z,21.00
2018-05-27T20:14:32.888Z,21.01
2018-05-27T20:15:30.691Z,21.00
2018-05-27T20:17:28.563Z,21.00
2018-05-27T20:18:28.531Z,20.95
2018-05-27T20:20:23.781Z,20.93
2018-05-27T20:21:21.897Z,20.92
2018-05-27T20:23:17.214Z,20.85
2018-05-27T20:24:16.733Z,20.90
2018-05-27T20:26:10.129Z,20.85
2018-05-27T20:27:10.019Z,20.85
2018-05-27T20:29:03.494Z,20.86
2018-05-27T20:30:02.892Z,20.82
2018-05-27T20:31:55.894Z,20.82
2018-05-27T20:32:55.843Z,20.74
2018-05-27T20:34:49.864Z,20.77
2018-05-27T20:35:49.292Z,20.67
2018-05-27T20:37:42.743Z,20.64
2018-05-27T20:38:43.623Z,20.70
2018-05-27T20:40:37.528Z,20.71
2018-05-27T20:41:36.491Z,20.77
2018-05-27T20:43:30.499Z,20.68
2018-05-27T20:44:29.966Z,20.58
2018-05-27T20:46:23.887Z,20.56
2018-05-27T20:47:23.022Z,20.56
2018-05-27T20:49:17.343Z,20.61
2018-05-27T20:50:16.744Z,20.60
2018-05-27T20:52:10.600Z,20.53
2018-05-27T20:53:09.696Z,20.56
2018-05-27T20:55:03.108Z,20.64
2018-05-27T20:56:03.042Z,20.58
2018-05-27T20:57:56.481Z,20.56
2018-05-27T20:58:56.431Z,20.65
2018-05-27T21:00:49.835Z,20.52
2018-05-27T21:01:49.462Z,20.49
2018-05-27T21:03:43.735Z,20.60
2018-05-27T21:04:43.753Z,20.58
2018-05-27T21:06:36.662Z,20.55
2018-05-27T21:07:36.580Z,20.60
2018-05-27T21:09:30.056Z,20.42
2018-05-27T21:10:30.535Z,20.34
2018-05-27T21:12:23.885Z,20.41
2018-05-27T21:13:23.959Z,20.39
2018-05-27T21:15:17.310Z,20.36
2018-05-27T21:16:17.188Z,20.39
2018-05-27T21:18:10.155Z,20.41
2018-05-27T21:19:10.090Z,20.39
2018-05-27T21:21:04.520Z,20.33
2018-05-27T21:22:03.996Z,20.29
2018-05-27T21:23:59.392Z,20.32
2018-05-27T21:24:57.423Z,20.29
2018-05-27T21:26:50.817Z,20.37
2018-05-27T21:27:51.339Z,20.39
2018-05-27T21:29:44.829Z,20.36
2018-05-27T21:30:44.485Z,20.36
2018-05-27T21:32:38.852Z,20.34
2018-05-27T21:33:37.775Z,20.27
2018-05-27T21:35:31.269Z,20.32
2018-05-27T21:36:30.848Z,20.27
2018-05-27T21:38:24.651Z,20.29
2018-05-27T21:39:24.283Z,20.30
2018-05-27T21:41:17.944Z,20.30
2018-05-27T21:42:19.436Z,20.29
2018-05-27T21:44:12.968Z,20.17
2018-05-27T21:45:12.349Z,20.18
2018-05-27T21:47:06.270Z,20.11
2018-05-27T21:48:05.299Z,20.12
2018-05-27T21:49:58.171Z,20.12
2018-05-27T21:50:58.136Z,20.04
2018-05-27T21:52:51.501Z,20.09
2018-05-27T21:53:51.457Z,20.04
2018-05-27T21:55:45.512Z,19.96
2018-05-27T21:56:45.415Z,19.89
2018-05-27T21:58:38.771Z,19.87
2018-05-27T21:59:39.355Z,19.77
2018-05-27T22:01:31.715Z,19.67
2018-05-27T22:02:31.220Z,19.72
2018-05-27T22:04:25.086Z,19.64
2018-05-27T22:05:25.028Z,19.67
2018-05-27T22:07:18.909Z,19.74
2018-05-27T22:08:18.316Z,19.77
2018-05-27T22:10:12.389Z,19.72
2018-05-27T22:11:12.815Z,19.68
2018-05-27T22:13:05.328Z,19.68
2018-05-27T22:14:04.905Z,19.70
2018-05-27T22:15:58.735Z,19.56
2018-05-27T22:16:58.298Z,19.57
2018-05-27T22:18:52.615Z,19.54
2018-05-27T22:19:51.792Z,19.70
2018-05-27T22:21:46.931Z,19.70
2018-05-27T22:22:46.546Z,19.67
2018-05-27T22:24:40.380Z,19.71
2018-05-27T22:25:40.381Z,19.71
2018-05-27T22:27:32.818Z,19.68
2018-05-27T22:28:32.603Z,19.59
2018-05-27T22:30:26.696Z,19.67
2018-05-27T22:31:27.619Z,19.54
2018-05-27T22:33:20.390Z,19.54
2018-05-27T22:34:20.430Z,19.59
2018-05-27T22:36:12.780Z,19.57
2018-05-27T22:37:12.707Z,19.63
2018-05-27T22:39:06.142Z,19.56
2018-05-27T22:40:05.681Z,19.52
2018-05-27T22:41:59.536Z,19.56
2018-05-27T22:42:59.477Z,19.42
2018-05-27T22:44:53.354Z,19.42
2018-05-27T22:45:52.794Z,19.45
2018-05-27T22:47:46.772Z,19.44
2018-05-27T22:48:46.239Z,19.42
2018-05-27T22:50:40.598Z,19.39
2018-05-27T22:51:39.124Z,19.47
2018-05-27T22:53:33.502Z,19.52
2018-05-27T22:54:32.927Z,19.42
2018-05-27T22:56:25.900Z,19.44
2018-05-27T22:57:26.423Z,19.49
2018-05-27T22:59:19.314Z,19.39
2018-05-27T23:01:32.729Z,19.42
2018-05-27T23:02:32.277Z,19.32
2018-05-27T23:04:25.864Z,19.34
2018-05-27T23:05:25.399Z,19.26
2018-05-27T23:07:19.212Z,19.27
2018-05-27T23:08:20.260Z,19.30
2018-05-27T23:10:13.138Z,19.27
2018-05-27T23:11:12.370Z,19.20
2018-05-27T23:13:06.508Z,19.08
2018-05-27T23:14:05.962Z,19.08
2018-05-27T23:16:00.406Z,19.12
2018-05-27T23:17:00.329Z,19.16
2018-05-27T23:18:52.712Z,19.13
2018-05-27T23:19:52.836Z,19.08
2018-05-27T23:21:46.082Z,19.12
2018-05-27T23:22:46.081Z,19.04
2018-05-27T23:24:39.470Z,19.04
2018-05-27T23:25:39.922Z,18.97
2018-05-27T23:27:33.476Z,18.94
2018-05-27T23:28:32.826Z,18.93
2018-05-27T23:30:26.235Z,18.85
2018-05-27T23:31:26.181Z,18.82
2018-05-27T23:33:19.607Z,18.83
2018-05-27T23:34:20.550Z,18.88
2018-05-27T23:36:13.201Z,18.74
2018-05-27T23:37:13.925Z,18.74
2018-05-27T23:39:06.874Z,18.74
2018-05-27T23:40:07.253Z,18.70
2018-05-27T23:41:59.769Z,18.63
2018-05-27T23:43:00.649Z,18.64
2018-05-27T23:44:53.122Z,18.68
2018-05-27T23:45:53.601Z,18.71
2018-05-27T23:47:46.595Z,18.66
2018-05-27T23:48:46.594Z,18.66
2018-05-27T23:50:40.895Z,18.66
2018-05-27T23:51:39.457Z,18.71
2018-05-27T23:53:32.825Z,18.66
2018-05-27T23:54:32.687Z,18.68
2018-05-27T23:56:26.168Z,18.68
2018-05-27T23:57:25.779Z,18.70
2018-05-27T23:59:20.133Z,18.67
